Data for 04/27/2006

Time Sea-Level Adjusted Pressure Absolute Pressure Temperature Relative Humidity Dew Point   
(mb) (inHg) (mb) (inHg) (C) (F) (%) (C) (F)
00:05 1016 30 845 24.95 10.4 50.7 29 -6.8 19.7
00:10 1016 30 845 24.95 10.4 50.7 26 -8.4 16.8
00:15 1016 30 845 24.95 10.8 51.4 25 -8.4 16.9
00:20 1016 30 845 24.95 10.8 51.4 28 -7.1 19.2
00:25 1016 30 845 24.95 10.4 50.8 27 -7.6 18.4
00:30 1016 30 845 24.95 10 50 32 -5.8 21.5
00:35 1016 30 845 24.95 9.2 48.6 34 -6 21.3
00:40 1016 30 845 24.95 9.2 48.5 31 -6.9 19.6
00:45 1016 30 845 24.95 9.4 49 33 -5.9 21.3
00:50 1016 30 845 24.95 9.5 49.2 33 -6 21.1
00:55 1016 30 845 24.95 9.4 48.9 35 -5.3 22.5
01:00 1016 30 845 24.95 9 48.3 33 -6.2 20.8
01:05 1016 30 845 24.95 9.4 48.8 33 -6 21.3
01:10 1016 30 845 24.95 9.1 48.4 36 -5.3 22.5
01:15 1016 30 845 24.95 8.8 47.9 38 -4.8 23.4
01:20 1016 30 845 24.95 8.6 47.5 38 -4.8 23.3
01:25 1016 30 845 24.95 8.6 47.6 36 -5.6 21.9
01:30 1016 30 845 24.95 8.8 47.9 37 -5 23
01:35 1016 30 845 24.95 8.7 47.7 37 -5.2 22.7
01:40 1016 30 845 24.95 8.5 47.4 38 -4.8 23.3
01:45 1016 30 845 24.95 8.5 47.3 38 -4.8 23.3
01:50 1016 30 845 24.95 8.7 47.6 38 -5 23
01:55 1016 30 845 24.95 8.8 47.8 37 -5.1 22.8
02:00 1015 29.97 845 24.95 8.9 48 36 -5.3 22.5
02:05 1015 29.97 845 24.95 9.2 48.5 33 -6.1 21
02:10 1015 29.97 845 24.95 9.5 49.2 33 -6.1 21
02:15 1015 29.97 845 24.95 9.7 49.5 31 -6.6 20.2
02:20 1015 29.97 845 24.95 10 49.9 31 -6.6 20.2
02:25 1015 29.97 845 24.95 9.9 49.9 32 -6.1 21.1
02:30 1015 29.97 845 24.95 9.4 48.8 38 -4.3 24.2
02:35 1015 29.97 845 24.95 8.4 47.2 41 -4.1 24.7
02:40 1015 29.97 844 24.92 8.3 46.9 39 -4.9 23.2
02:45 1015 29.97 844 24.92 8.5 47.4 35 -5.9 21.4
02:50 1015 29.97 844 24.92 9 48.2 34 -6.1 21.1
02:55 1015 29.97 844 24.92 9.4 48.8 33 -6.1 21.1
03:00 1015 29.97 844 24.92 9.4 48.9 33 -6 21.2
03:05 1015 29.97 844 24.92 9.5 49.2 32 -6.4 20.4
03:10 1015 29.97 845 24.95 9.7 49.5 33 -5.8 21.6
03:15 1015 29.97 845 24.95 9.5 49.2 36 -4.9 23.2
03:20 1015 29.97 845 24.95 9 48.1 39 -4.3 24.3
03:25 1015 29.97 845 24.95 8.5 47.2 40 -4.3 24.3
03:30 1015 29.97 845 24.95 8.4 47 39 -4.8 23.4
03:35 1015 29.97 845 24.95 8.3 46.9 41 -4.2 24.4
03:40 1015 29.97 845 24.95 8.5 47.3 36 -5.6 22
03:45 1015 29.97 845 24.95 8.9 48.1 37 -4.9 23.2
03:50 1015 29.97 845 24.95 8.6 47.4 42 -3.6 25.5
03:55 1015 29.97 844 24.92 8.2 46.8 42 -3.8 25.1
04:00 1015 29.97 845 24.95 7.9 46.2 44 -3.7 25.4
04:05 1015 29.97 844 24.92 7.8 46.1 42 -4.4 24
04:10 1015 29.97 844 24.92 8.1 46.6 40 -4.6 23.8
04:15 1015 29.97 844 24.92 8.3 47 40 -4.4 24.1
04:20 1015 29.97 844 24.92 8.4 47.2 39 -4.6 23.7
04:25 1015 29.97 844 24.92 8.7 47.7 38 -4.8 23.3
04:30 1015 29.97 844 24.92 8.8 47.8 38 -4.8 23.3
04:35 1015 29.97 844 24.92 8.8 47.9 38 -4.5 23.8
04:40 1015 29.97 844 24.92 8.9 48 35 -5.6 22
04:45 1015 29.97 844 24.92 9.3 48.7 34 -5.7 21.7
04:50 1015 29.97 844 24.92 9.4 49 35 -5.1 22.7
04:55 1015 29.97 844 24.92 9.4 48.8 35 -5.4 22.3
05:00 1015 29.97 844 24.92 9.3 48.8 34 -5.6 21.8
05:05 1015 29.97 845 24.95 9.4 48.9 36 -5.1 22.9
05:10 1015 29.97 845 24.95 9.2 48.6 37 -4.7 23.6
05:15 1015 29.97 845 24.95 9.1 48.3 37 -4.8 23.4
05:20 1015 29.97 845 24.95 8.9 47.9 38 -4.8 23.4
05:25 1015 29.97 845 24.95 9 48.2 36 -5.3 22.4
05:30 1015 29.97 845 24.95 9.3 48.7 34 -5.6 21.8
05:35 1015 29.97 845 24.95 9.5 49.2 34 -5.4 22.3
05:40 1015 29.97 845 24.95 9.5 49.2 34 -5.4 22.2
05:45 1015 29.97 845 24.95 9.6 49.3 35 -5.3 22.5
05:50 1015 29.97 845 24.95 9.6 49.4 34 -5.3 22.4
05:55 1015 29.97 845 24.95 9.6 49.2 35 -5.1 22.7
06:00 1016 30 845 24.95 9.5 49.1 37 -4.5 23.8
06:05 1016 30 845 24.95 9.3 48.8 37 -4.5 23.9
06:10 1016 30 845 24.95 9.3 48.7 35 -5.3 22.4
06:15 1016 30 845 24.95 9.3 48.8 36 -4.9 23.1
06:20 1016 30 845 24.95 9.3 48.7 36 -5 23
06:25 1016 30 845 24.95 9.3 48.8 37 -4.7 23.6
06:30 1016 30 845 24.95 9.3 48.8 34 -5.9 21.4
06:35 1016 30 845 24.95 9.5 49.1 34 -5.7 21.8
06:40 1016 30 845 24.95 9.5 49.1 34 -5.5 22.1
06:45 1016 30 845 24.95 9.4 48.9 34 -5.5 22.1
06:50 1016 30 845 24.95 9.4 48.8 35 -5.4 22.3
06:55 1016 30 846 24.98 9.4 49 35 -5.4 22.3
07:00 1016 30 846 24.98 9.4 49 34 -5.4 22.2
07:05 1017 30.03 846 24.98 9.5 49.1 35 -5.2 22.7
07:10 1017 30.03 846 24.98 9.5 49.1 38 -4.2 24.4
07:15 1017 30.03 846 24.98 9.5 49 40 -3.6 25.5
07:20 1017 30.03 846 24.98 9.3 48.8 42 -3 26.6
07:25 1017 30.03 846 24.98 9.2 48.5 43 -2.6 27.4
07:30 1017 30.03 846 24.98 8.6 47.5 47 -2 28.4
07:35 1017 30.03 847 25.01 8.4 47.1 48 -1.9 28.5
07:40 1018 30.06 847 25.01 8.2 46.8 50 -1.7 28.9
07:45 1018 30.06 847 25.01 8.1 46.6 51 -1.3 29.7
07:50 1018 30.06 847 25.01 8 46.5 52 -1.3 29.7
07:55 1018 30.06 847 25.01 8 46.3 53 -1 30.2
08:00 1018 30.06 847 25.01 8.1 46.5 53 -1 30.2
08:05 1018 30.06 847 25.01 8 46.3 55 -0.5 31.1
08:10 1018 30.06 847 25.01 7.7 45.8 56 -0.6 31
08:15 1018 30.06 847 25.01 7.5 45.5 55 -0.9 30.4
08:20 1018 30.06 847 25.01 7.5 45.4 60 0.3 32.5
08:25 1018 30.06 847 25.01 7.2 45 64 0.8 33.4
08:30 1018 30.06 847 25.01 7 44.5 58 -0.7 30.7
08:35 1018 30.06 847 25.01 7.3 45.1 61 0.3 32.6
08:40 1018 30.06 847 25.01 7.2 45 60 -0.1 31.9
08:45 1018 30.06 847 25.01 7.3 45.2 62 0.5 32.9
08:50 1018 30.06 847 25.01 7.4 45.4 60 0.2 32.3
08:55 1018 30.06 847 25.01 7.6 45.7 60 0.5 32.8
09:00 1018 30.06 847 25.01 7.6 45.6 60 0.4 32.7
09:05 1018 30.06 847 25.01 7.5 45.5 62 0.7 33.3
09:10 1018 30.06 847 25.01 7.7 45.8 62 0.9 33.7
09:15 1018 30.06 847 25.01 7.8 46 61 0.8 33.5
09:20 1018 30.06 847 25.01 7.8 46.1 63 1.1 34.1
09:25 1018 30.06 847 25.01 8 46.3 60 0.7 33.3
09:30 1018 30.06 847 25.01 8.2 46.7 57 0.2 32.4
09:35 1018 30.06 847 25.01 8.3 47 57 0.3 32.5
09:40 1018 30.06 847 25.01 8.4 47.1 59 1 33.7
09:45 1018 30.06 847 25.01 8.5 47.3 57 0.6 33
09:50 1018 30.06 847 25.01 8.7 47.6 57 0.7 33.3
09:55 1018 30.06 847 25.01 8.7 47.7 56 0.6 33.1
10:00 1018 30.06 847 25.01 9.2 48.5 54 0.5 32.9
10:05 1018 30.06 847 25.01 9.4 49 57 1.4 34.5
10:10 1018 30.06 847 25.01 9.2 48.5 59 1.6 34.9
10:15 1018 30.06 847 25.01 9.2 48.5 58 1.5 34.7
10:20 1018 30.06 847 25.01 8.7 47.7 60 1.3 34.4
10:25 1018 30.06 847 25.01 8.7 47.6 58 0.9 33.7
10:30 1018 30.06 847 25.01 8.6 47.4 60 1.2 34.1
10:35 1018 30.06 848 25.04 8.5 47.3 59 1 33.9
10:40 1018 30.06 848 25.04 8.7 47.7 60 1.5 34.7
10:45 1019 30.09 848 25.04 9.1 48.4 57 1 33.8
10:50 1019 30.09 848 25.04 9.1 48.5 59 1.5 34.8
10:55 1019 30.09 848 25.04 8.6 47.5 64 2.2 36
11:00 1019 30.09 848 25.04 7.8 46.1 68 2.4 36.2
11:05 1019 30.09 848 25.04 7.9 46.2 67 2.1 35.7
11:10 1019 30.09 848 25.04 7.8 46 66 1.9 35.4
11:15 1019 30.09 848 25.04 8.1 46.5 64 1.6 34.9
11:20 1019 30.09 848 25.04 8.4 47 64 1.9 35.5
11:25 1019 30.09 848 25.04 8.1 46.6 64 1.7 35.1
11:30 1019 30.09 848 25.04 8.3 46.9 60 1.1 34
11:35 1019 30.09 848 25.04 9 48.1 62 2.1 35.7
11:40 1019 30.09 848 25.04 8.8 47.8 62 1.9 35.4
11:45 1019 30.09 848 25.04 9.9 49.7 55 1.2 34.2
11:50 1019 30.09 848 25.04 11.1 52 52 1.7 35.1
11:55 1019 30.09 848 25.04 10.4 50.7 56 2.2 35.9
12:00 1019 30.09 848 25.04 10.5 50.9 54 1.5 34.7
12:05 1019 30.09 848 25.04 10.8 51.4 53 1.6 34.9
12:10 1019 30.09 848 25.04 10.8 51.4 50 0.9 33.6
12:15 1019 30.09 848 25.04 10.6 51.1 51 0.8 33.5
12:20 1019 30.09 848 25.04 10.6 51.1 50 0.7 33.3
12:25 1019 30.09 848 25.04 10.7 51.3 50 0.7 33.2
12:30 1019 30.09 848 25.04 11.2 52.1 48 0.8 33.4
12:35 1019 30.09 848 25.04 11.9 53.4 47 0.9 33.7
12:40 1019 30.09 848 25.04 12.3 54.2 47 1.4 34.5
12:45 1019 30.09 848 25.04 12.3 54.1 46 1.1 34
12:50 1019 30.09 848 25.04 12.4 54.3 47 1.4 34.6
12:55 1019 30.09 848 25.04 12.5 54.4 45 0.9 33.7
13:00 1019 30.09 848 25.04 12.8 55 45 1.3 34.3
13:05 1019 30.09 848 25.04 12.2 53.9 45 0.7 33.3
13:10 1019 30.09 848 25.04 12.2 53.9 46 0.9 33.7
13:15 1019 30.09 848 25.04 12 53.7 47 1.1 34
13:20 1019 30.09 848 25.04 12 53.6 44 0.3 32.5
13:25 1019 30.09 848 25.04 12.4 54.3 44 0.4 32.8
13:30 1019 30.09 848 25.04 12.3 54.1 44 0.5 32.9
13:35 1019 30.09 848 25.04 12.8 55.1 40 -0.5 31.1
13:40 1019 30.09 848 25.04 13.4 56 38 -0.7 30.7
13:45 1019 30.09 848 25.04 13.5 56.2 37 -0.9 30.4
13:50 1018 30.06 848 25.04 13.3 55.9 35 -1.8 28.8
13:55 1018 30.06 848 25.04 13.2 55.7 36 -1.6 29.1
14:00 1018 30.06 848 25.04 13.4 56.1 36 -1.4 29.6
14:05 1018 30.06 848 25.04 13.5 56.3 36 -1.4 29.5
14:10 1018 30.06 848 25.04 13.6 56.4 36 -1.3 29.6
14:15 1018 30.06 848 25.04 13.7 56.6 34 -1.7 29
14:20 1018 30.06 848 25.04 13.7 56.6 37 -0.5 31.1
14:25 1018 30.06 848 25.04 13.1 55.6 40 -0.3 31.5
14:30 1018 30.06 848 25.04 13.2 55.8 38 -0.7 30.7
14:35 1018 30.06 848 25.04 13.1 55.5 39 -0.3 31.4
14:40 1018 30.06 848 25.04 12.9 55.3 39 -0.6 30.9
14:45 1018 30.06 848 25.04 12.9 55.2 39 -0.7 30.7
14:50 1018 30.06 848 25.04 13.2 55.7 40 -0.2 31.7
14:55 1018 30.06 848 25.04 13.8 56.8 36 -1 30.1
15:00 1018 30.06 848 25.04 13.8 56.9 40 0.4 32.8
15:05 1018 30.06 848 25.04 13.4 56.1 38 -0.6 31
15:10 1018 30.06 848 25.04 12.9 55.3 35 -2.1 28.2
15:15 1018 30.06 848 25.04 12.3 54.1 40 -0.8 30.5
15:20 1019 30.09 848 25.04 12 53.7 37 -2.1 28.2
15:25 1019 30.09 848 25.04 11.7 53 42 -0.9 30.4
15:30 1019 30.09 848 25.04 11.8 53.2 42 -0.5 31.1
15:35 1019 30.09 848 25.04 12.2 53.9 38 -1.8 28.8
15:40 1019 30.09 848 25.04 12.7 54.9 34 -2.8 26.9
15:45 1018 30.06 848 25.04 13.5 56.3 31 -3.1 26.5
15:50 1018 30.06 848 25.04 13.8 56.9 30 -3.3 26
15:55 1018 30.06 848 25.04 14.4 58 28 -3.7 25.4
16:00 1018 30.06 848 25.04 15 59 27 -3.6 25.4
16:05 1018 30.06 848 25.04 14.9 58.8 27 -4.1 24.7
16:10 1018 30.06 848 25.04 14.4 57.9 29 -3.5 25.6
16:15 1018 30.06 848 25.04 14.1 57.4 28 -4.2 24.5
16:20 1018 30.06 848 25.04 14.9 58.7 27 -3.8 25.1
16:25 1018 30.06 848 25.04 14.8 58.6 27 -4 24.9
16:30 1018 30.06 848 25.04 14.3 57.7 27 -4.4 24
16:35 1018 30.06 848 25.04 14.6 58.2 28 -3.8 25.2
16:40 1018 30.06 848 25.04 14.5 58.1 28 -3.5 25.8
16:45 1018 30.06 848 25.04 14.7 58.4 27 -4 24.9
16:50 1018 30.06 848 25.04 14.6 58.3 27 -4.3 24.3
16:55 1018 30.06 848 25.04 15 58.9 26 -4.4 24.1
17:00 1018 30.06 848 25.04 15 59 26 -4.1 24.6
17:05 1018 30.06 848 25.04 14.5 58.2 27 -4 24.9
17:10 1019 30.09 848 25.04 13.8 56.8 27 -4.8 23.4
17:15 1019 30.09 848 25.04 14 57.2 28 -4.3 24.3
17:20 1019 30.09 848 25.04 14 57.2 28 -4.1 24.7
17:25 1019 30.09 848 25.04 14.3 57.8 28 -4.1 24.6
17:30 1019 30.09 848 25.04 14.4 57.8 27 -4.4 24
17:35 1019 30.09 848 25.04 14.6 58.3 25 -4.9 23.2
17:40 1019 30.09 848 25.04 14.7 58.5 26 -4.5 23.9
17:45 1019 30.09 848 25.04 14.8 58.6 28 -3.7 25.4
17:50 1019 30.09 848 25.04 14.9 58.7 27 -4.1 24.6
17:55 1019 30.09 848 25.04 14.5 58 27 -4.1 24.6
18:00 1019 30.09 848 25.04 14.7 58.4 26 -4.3 24.2
18:05 1019 30.09 848 25.04 14.4 58 27 -4.2 24.5
18:10 1019 30.09 848 25.04 13.9 57 28 -4.5 23.9
18:15 1019 30.09 848 25.04 13.6 56.4 30 -3.7 25.4
18:20 1019 30.09 848 25.04 13.7 56.7 28 -4.3 24.2
18:25 1019 30.09 848 25.04 14.2 57.6 28 -3.7 25.3
18:30 1019 30.09 848 25.04 14.2 57.5 28 -4.2 24.5
18:35 1019 30.09 848 25.04 14.2 57.6 28 -3.8 25.1
18:40 1019 30.09 848 25.04 14.1 57.5 29 -3.4 25.9
18:45 1019 30.09 848 25.04 13.8 56.9 30 -3.6 25.5
18:50 1019 30.09 848 25.04 13.5 56.2 30 -3.9 24.9
18:55 1019 30.09 848 25.04 13.3 55.9 30 -3.8 25.2
19:00 1019 30.09 848 25.04 13.2 55.8 29 -4.1 24.6
19:05 1019 30.09 848 25.04 13.3 56 30 -3.9 25.1
19:10 1019 30.09 848 25.04 13.2 55.8 30 -3.7 25.3
19:15 1019 30.09 848 25.04 13.2 55.8 30 -4 24.8
19:20 1019 30.09 848 25.04 13.2 55.7 31 -3.7 25.4
19:25 1019 30.09 848 25.04 13.2 55.7 31 -3.7 25.4
19:30 1019 30.09 848 25.04 13 55.4 31 -3.6 25.4
19:35 1019 30.09 849 25.07 12.9 55.1 31 -4 24.9
19:40 1019 30.09 849 25.07 12.7 54.9 32 -3.6 25.5
19:45 1019 30.09 849 25.07 12.6 54.7 32 -3.6 25.5
19:50 1019 30.09 849 25.07 12.4 54.4 32 -3.7 25.4
19:55 1019 30.09 849 25.07 12.1 53.8 33 -3.8 25.2
20:00 1019 30.09 849 25.07 12.1 53.9 33 -3.6 25.4
20:05 1020 30.12 849 25.07 12.1 53.8 34 -3.3 26
20:10 1020 30.12 849 25.07 12 53.5 34 -3.2 26.3
20:15 1020 30.12 849 25.07 11.9 53.3 34 -3.5 25.7
20:20 1020 30.12 849 25.07 11.6 53 34 -3.5 25.7
20:25 1020 30.12 849 25.07 11.6 52.9 35 -3.4 25.9
20:30 1020 30.12 849 25.07 11.5 52.7 35 -3.5 25.8
20:35 1020 30.12 849 25.07 11.3 52.3 35 -3.6 25.6
20:40 1020 30.12 849 25.07 11.1 52 36 -3.5 25.6
20:45 1020 30.12 849 25.07 11 51.7 36 -3.5 25.7
20:50 1020 30.12 849 25.07 10.9 51.6 36 -3.7 25.4
20:55 1020 30.12 849 25.07 10.8 51.4 36 -3.5 25.6
21:00 1020 30.12 850 25.1 10.7 51.3 36 -3.5 25.6
21:05 1020 30.12 850 25.1 10.8 51.4 36 -3.6 25.4
21:10 1021 30.15 850 25.1 10.7 51.2 37 -3.6 25.6
21:15 1021 30.15 850 25.1 10.5 50.9 37 -3.6 25.5
21:20 1021 30.15 850 25.1 10.5 50.9 37 -3.6 25.5
21:25 1021 30.15 850 25.1 10.4 50.7 37 -3.7 25.4
21:30 1021 30.15 850 25.1 10.3 50.5 38 -3.6 25.6
21:35 1021 30.15 850 25.1 9.7 49.5 45 -1.7 29
21:40 1021 30.15 850 25.1 8.5 47.3 48 -1.8 28.7
21:45 1021 30.15 850 25.1 8.1 46.6 49 -1.9 28.6
21:50 1021 30.15 850 25.1 7.9 46.2 50 -1.8 28.7
21:55 1021 30.15 850 25.1 7.7 45.9 51 -1.7 29
22:00 1021 30.15 850 25.1 7.4 45.3 53 -1.6 29.2
22:05 1021 30.15 850 25.1 7.3 45.1 53 -1.6 29.1
22:10 1021 30.15 850 25.1 7.1 44.7 54 -1.5 29.3
22:15 1021 30.15 850 25.1 6.7 44.1 56 -1.5 29.3
22:20 1021 30.15 850 25.1 6.6 43.8 55 -1.7 29
22:25 1021 30.15 850 25.1 6.5 43.6 56 -1.8 28.8
22:30 1021 30.15 850 25.1 6.5 43.6 56 -1.8 28.8
22:35 1021 30.15 850 25.1 6.4 43.5 57 -1.5 29.3
22:40 1021 30.15 850 25.1 6.2 43.1 57 -1.6 29.1
22:45 1021 30.15 851 25.13 6 42.7 58 -1.7 29
22:50 1021 30.15 851 25.13 5.6 42.1 60 -1.6 29.1
22:55 1021 30.15 851 25.13 5.4 41.7 60 -1.7 28.9
23:00 1021 30.15 851 25.13 5.4 41.7 60 -1.7 28.9
23:05 1021 30.15 851 25.13 5.3 41.6 61 -1.7 28.9
23:10 1022 30.18 851 25.13 5 41.1 61 -1.9 28.5
23:15 1022 30.18 851 25.13 5.3 41.6 58 -2.2 28
23:20 1022 30.18 851 25.13 5.4 41.7 59 -1.9 28.5
23:25 1022 30.18 851 25.13 5 41 61 -1.9 28.5
23:30 1022 30.18 851 25.13 5.1 41.1 59 -2.3 27.9
23:35 1022 30.18 851 25.13 5.3 41.6 58 -2.3 27.8
23:40 1022 30.18 851 25.13 5.4 41.8 56 -2.5 27.5
23:45 1022 30.18 851 25.13 5.6 42.1 57 -2.3 27.9
23:50 1022 30.18 851 25.13 5.7 42.2 56 -2.3 27.8
23:55 1022 30.18 851 25.13 5.4 41.6 57 -2.4 27.7
24:00 1022 30.18 851 25.13 5.1 41.1 59 -2.3 27.9